sensor_id;sensor_type;location;lat;lon;timestamp;P1;durP1;ratioP1;P2;durP2;ratioP2
34952;SDS011;21164;54.378;10.202;2022-09-09T00:00:29;721.60;;;675.50;;
34952;SDS011;21164;54.378;10.202;2022-09-09T00:03:10;719.42;;;673.47;;
34952;SDS011;21164;54.378;10.202;2022-09-09T00:05:51;729.53;;;682.78;;
34952;SDS011;21164;54.378;10.202;2022-09-09T00:08:39;717.08;;;670.72;;
34952;SDS011;21164;54.378;10.202;2022-09-09T00:11:16;734.15;;;686.92;;
34952;SDS011;21164;54.378;10.202;2022-09-09T00:13:52;730.45;;;683.25;;
34952;SDS011;21164;54.378;10.202;2022-09-09T00:16:24;740.40;;;692.55;;
34952;SDS011;21164;54.378;10.202;2022-09-09T00:21:25;751.45;;;702.80;;
34952;SDS011;21164;54.378;10.202;2022-09-09T00:23:58;737.65;;;689.58;;
34952;SDS011;21164;54.378;10.202;2022-09-09T00:26:38;756.75;;;706.88;;
34952;SDS011;21164;54.378;10.202;2022-09-09T00:29:28;761.08;;;711.33;;
34952;SDS011;21164;54.378;10.202;2022-09-09T00:32:11;755.42;;;706.15;;
34952;SDS011;21164;54.378;10.202;2022-09-09T00:34:39;758.30;;;708.88;;
34952;SDS011;21164;54.378;10.202;2022-09-09T00:37:12;753.75;;;704.67;;
34952;SDS011;21164;54.378;10.202;2022-09-09T00:39:42;768.33;;;717.88;;
34952;SDS011;21164;54.378;10.202;2022-09-09T00:42:22;758.25;;;708.65;;
34952;SDS011;21164;54.378;10.202;2022-09-09T00:58:27;755.83;;;706.17;;
34952;SDS011;21164;54.378;10.202;2022-09-09T01:01:02;750.25;;;700.72;;
34952;SDS011;21164;54.378;10.202;2022-09-09T01:03:51;767.78;;;717.70;;
34952;SDS011;21164;54.378;10.202;2022-09-09T01:11:17;752.22;;;702.65;;
34952;SDS011;21164;54.378;10.202;2022-09-09T01:13:49;756.67;;;707.00;;
34952;SDS011;21164;54.378;10.202;2022-09-09T01:16:37;763.88;;;713.42;;
34952;SDS011;21164;54.378;10.202;2022-09-09T01:19:03;777.67;;;726.33;;
34952;SDS011;21164;54.378;10.202;2022-09-09T01:24:22;767.15;;;716.70;;
34952;SDS011;21164;54.378;10.202;2022-09-09T01:27:02;765.10;;;715.30;;
34952;SDS011;21164;54.378;10.202;2022-09-09T01:29:30;776.88;;;725.97;;
34952;SDS011;21164;54.378;10.202;2022-09-09T01:31:57;782.40;;;731.10;;
34952;SDS011;21164;54.378;10.202;2022-09-09T01:34:29;777.35;;;726.20;;
34952;SDS011;21164;54.378;10.202;2022-09-09T01:37:10;778.08;;;726.38;;
34952;SDS011;21164;54.378;10.202;2022-09-09T01:39:38;784.35;;;733.13;;
34952;SDS011;21164;54.378;10.202;2022-09-09T01:42:07;782.38;;;730.83;;
34952;SDS011;21164;54.378;10.202;2022-09-09T01:44:36;791.15;;;739.45;;
34952;SDS011;21164;54.378;10.202;2022-09-09T01:47:03;790.95;;;738.53;;
34952;SDS011;21164;54.378;10.202;2022-09-09T01:51:55;776.65;;;725.42;;
34952;SDS011;21164;54.378;10.202;2022-09-09T01:54:22;784.30;;;732.83;;
34952;SDS011;21164;54.378;10.202;2022-09-09T02:02:36;792.08;;;739.25;;
34952;SDS011;21164;54.378;10.202;2022-09-09T02:05:36;758.47;;;709.17;;
34952;SDS011;21164;54.378;10.202;2022-09-09T02:08:06;788.83;;;736.83;;
34952;SDS011;21164;54.378;10.202;2022-09-09T02:13:20;798.25;;;745.05;;
34952;SDS011;21164;54.378;10.202;2022-09-09T02:15:49;794.70;;;741.70;;
34952;SDS011;21164;54.378;10.202;2022-09-09T02:18:18;794.67;;;741.92;;
34952;SDS011;21164;54.378;10.202;2022-09-09T02:21:08;794.95;;;742.17;;
34952;SDS011;21164;54.378;10.202;2022-09-09T02:23:36;805.88;;;752.10;;
34952;SDS011;21164;54.378;10.202;2022-09-09T02:26:06;790.72;;;738.15;;
34952;SDS011;21164;54.378;10.202;2022-09-09T02:28:35;789.83;;;737.25;;
34952;SDS011;21164;54.378;10.202;2022-09-09T02:31:02;794.00;;;741.20;;
34952;SDS011;21164;54.378;10.202;2022-09-09T02:33:30;784.10;;;732.30;;
34952;SDS011;21164;54.378;10.202;2022-09-09T02:36:19;790.78;;;738.38;;
34952;SDS011;21164;54.378;10.202;2022-09-09T02:38:47;799.53;;;745.90;;
34952;SDS011;21164;54.378;10.202;2022-09-09T02:41:22;797.38;;;743.90;;
34952;SDS011;21164;54.378;10.202;2022-09-09T02:43:52;799.83;;;746.15;;
34952;SDS011;21164;54.378;10.202;2022-09-09T02:49:13;788.22;;;735.58;;
34952;SDS011;21164;54.378;10.202;2022-09-09T02:54:26;795.50;;;742.53;;
34952;SDS011;21164;54.378;10.202;2022-09-09T02:56:56;781.08;;;729.15;;
34952;SDS011;21164;54.378;10.202;2022-09-09T02:59:27;786.55;;;733.70;;
34952;SDS011;21164;54.378;10.202;2022-09-09T03:01:54;799.63;;;746.25;;
34952;SDS011;21164;54.378;10.202;2022-09-09T03:04:19;784.50;;;731.83;;
34952;SDS011;21164;54.378;10.202;2022-09-09T03:06:45;806.65;;;752.67;;
34952;SDS011;21164;54.378;10.202;2022-09-09T03:09:11;795.25;;;742.33;;
34952;SDS011;21164;54.378;10.202;2022-09-09T03:11:36;798.65;;;745.28;;
34952;SDS011;21164;54.378;10.202;2022-09-09T03:14:03;795.58;;;742.47;;
34952;SDS011;21164;54.378;10.202;2022-09-09T03:18:55;772.45;;;720.75;;
34952;SDS011;21164;54.378;10.202;2022-09-09T03:21:20;786.47;;;733.20;;
34952;SDS011;21164;54.378;10.202;2022-09-09T03:23:46;795.53;;;742.40;;
34952;SDS011;21164;54.378;10.202;2022-09-09T03:26:12;787.00;;;733.70;;
34952;SDS011;21164;54.378;10.202;2022-09-09T03:28:40;797.92;;;743.80;;
34952;SDS011;21164;54.378;10.202;2022-09-09T03:31:06;786.50;;;732.83;;
34952;SDS011;21164;54.378;10.202;2022-09-09T03:33:35;799.35;;;744.80;;
34952;SDS011;21164;54.378;10.202;2022-09-09T03:36:04;800.13;;;744.67;;
34952;SDS011;21164;54.378;10.202;2022-09-09T03:38:30;809.10;;;753.65;;
34952;SDS011;21164;54.378;10.202;2022-09-09T03:40:56;788.97;;;735.30;;
34952;SDS011;21164;54.378;10.202;2022-09-09T03:43:22;807.10;;;752.20;;
34952;SDS011;21164;54.378;10.202;2022-09-09T03:45:50;788.97;;;734.83;;
34952;SDS011;21164;54.378;10.202;2022-09-09T03:48:16;792.30;;;737.72;;
34952;SDS011;21164;54.378;10.202;2022-09-09T03:53:30;603.05;;;566.05;;
34952;SDS011;21164;54.378;10.202;2022-09-09T03:58:27;1587.67;;;999.90;;
34952;SDS011;21164;54.378;10.202;2022-09-09T04:00:56;1999.90;;;999.90;;
